createdAt,value
2017-09-29T00:15:51.489Z,99021.12
2017-09-29T00:36:29.191Z,98997.95
2017-09-29T00:57:01.887Z,98980.37
2017-09-29T01:17:43.912Z,98986.57
2017-09-29T01:38:19.179Z,98968.18
2017-09-29T01:58:54.706Z,98964.13
2017-09-29T02:37:36.312Z,98944.50
2017-09-29T02:58:20.797Z,98942.98
2017-09-29T03:18:56.246Z,98945.41
2017-09-29T03:39:32.486Z,98944.41
2017-09-29T04:00:06.705Z,98932.72
2017-09-29T04:20:39.735Z,98932.88
2017-09-29T04:41:18.077Z,98932.38
2017-09-29T05:01:53.044Z,98928.42
2017-09-29T05:22:28.654Z,98935.41
2017-09-29T05:43:00.847Z,98938.49
2017-09-29T06:03:33.639Z,98959.16
2017-09-29T06:24:11.980Z,98965.70
2017-09-29T06:44:47.551Z,98961.52
2017-09-29T07:05:28.663Z,98967.68
2017-09-29T07:26:06.705Z,98961.78
2017-09-29T07:46:46.368Z,98973.55
2017-09-29T08:07:20.318Z,98972.00
2017-09-29T08:27:52.511Z,98962.00
2017-09-29T08:48:27.786Z,98943.09
2017-09-29T09:09:05.830Z,98924.57
2017-09-29T09:29:43.247Z,98914.70
2017-09-29T09:50:20.668Z,98891.67
2017-09-29T10:11:18.377Z,98856.91
2017-09-29T10:32:01.609Z,98844.33
2017-09-29T10:52:40.598Z,98810.73
2017-09-29T11:13:40.395Z,98791.96
2017-09-29T11:34:13.486Z,98777.03
2017-09-29T11:54:47.718Z,98763.92
2017-09-29T12:15:23.195Z,98741.92
2017-09-29T12:35:59.178Z,98723.50
2017-09-29T12:56:38.327Z,98717.03
2017-09-29T13:17:22.510Z,98717.20
2017-09-29T13:37:59.011Z,98691.61
2017-09-29T13:58:38.422Z,98684.08
2017-09-29T14:19:27.986Z,98679.60
2017-09-29T14:40:09.702Z,98656.11
2017-09-29T15:21:37.518Z,98660.33
2017-09-29T15:42:20.708Z,98645.77
2017-09-29T16:03:05.496Z,98635.30
2017-09-29T16:23:46.305Z,98654.04
2017-09-29T16:44:21.577Z,98650.19
2017-09-29T17:05:03.028Z,98659.55
2017-09-29T17:25:42.335Z,98673.89
2017-09-29T17:46:19.384Z,98669.91
2017-09-29T18:06:54.779Z,98676.97
2017-09-29T18:27:31.023Z,98665.91
2017-09-29T18:48:03.051Z,98655.88
2017-09-29T19:08:35.252Z,98670.23
2017-09-29T19:50:04.824Z,98677.34
2017-09-29T20:10:41.022Z,98665.17
2017-09-29T20:31:23.974Z,98666.42
2017-09-29T20:52:00.474Z,98655.84
2017-09-29T21:12:34.823Z,98641.41
2017-09-29T21:33:33.497Z,98632.58
2017-09-29T21:54:12.893Z,98617.42
2017-09-29T22:14:50.746Z,98613.73
2017-09-29T22:35:22.968Z,98595.16
2017-09-29T22:55:57.301Z,98568.95
2017-09-29T23:16:35.635Z,98560.09
2017-09-29T23:37:09.679Z,98550.97
2017-09-29T23:57:44.953Z,98543.91
